SondeTracker

Meteorological Radiosondes Database

Operations

Sounding was ended - last measurement: 2022-12-06 00:49:47z

MAP
About Radiosonde

Number: U2510100

Launch Site: Tucson [AZ] (US)

Type: RS41

AUX: NO

Frequency: 405.201 MHz

Max Speed: 183 km/h at 12496 m

Average Speed: 114.00 km/h

Max Altitude: 31020 m

Average Ascent Speed: 5.41 m/s

Average Descent Speed: 0.00 m/s

Status: UNKNOWN

Status Changes
Launch Site Type AUX Frequency Status Finder Landing Point Description Changes made by
APRS Statistics

Received Frames: 111

First Frame [UTC]: 2022-12-05 23:51:15z

Last Frame [UTC]: 2022-12-06 00:49:47z

Receivers: KE7KRF, KE7KRF-14

Flight Time: 00:58:32 h

Distance From First Measurement: 91.56 km

Nearest City: Safford [AZ] (US) [46.54 km]

Nearest Hunter: KE7KRF [75.28 km]

Ground Altitude: 1087 m

Distance from QTH: 0.00 km

APRS Data
Receiver Number Date/Time [UTC] φ λ Course [°] Speed [km/h] Altitude [m] Description
KE7KRFU25101002022-12-06 00:49:4732.596-109.2910610431020Clb=2.1m/s t=-48.1C h=0.9% p=-1.0hPa 405.201 MHz Type=RS41-NG ser=U2510100 Radiosonde
KE7KRFU25101002022-12-06 00:49:3632.5976-109.3691108329327Clb=5.9m/s t=-43.9C h=0.7% p=-1.0hPa 405.201 MHz Type=RS41-NG ser=U2510100 Radiosonde
KE7KRFU25101002022-12-06 00:49:3332.599-109.3771019329176Clb=5.8m/s t=-44.3C h=0.7% p=-1.0hPa 405.201 MHz Type=RS41-NG ser=U2510100 Radiosonde
KE7KRFU25101002022-12-06 00:49:3232.6005-109.3869610629015Clb=6.0m/s t=-44.7C h=0.7% p=-1.0hPa 405.201 MHz Type=RS41-NG ser=U2510100 Radiosonde
KE7KRFU25101002022-12-06 00:49:3032.6023-109.398969328810Clb=6.9m/s t=-46.5C h=0.8% p=-1.0hPa 405.201 MHz Type=RS41-NG ser=U2510100 Radiosonde
KE7KRFU25101002022-12-06 00:49:2832.6029-109.403988928693Clb=6.7m/s t=-47.7C h=0.8% p=-1.0hPa 405.201 MHz Type=RS41-NG ser=U2510100 Radiosonde
KE7KRFU25101002022-12-06 00:48:5832.6044-109.4111039828520Clb=6.9m/s t=-48.0C h=0.9% p=-1.0hPa 405.201 MHz Type=RS41-NG ser=U2510100 Radiosonde
KE7KRFU25101002022-12-06 00:48:0432.6055-109.4219311128331Clb=6.3m/s t=-48.5C h=0.9% p=-1.0hPa 405.201 MHz Type=RS41-NG ser=U2510100 Radiosonde
KE7KRFU25101002022-12-06 00:47:0632.6067-109.431989128146Clb=3.9m/s t=-49.2C h=0.9% p=-1.0hPa 405.201 MHz Type=RS41-NG ser=U2510100 Radiosonde
KE7KRFU25101002022-12-06 00:46:1132.6069-109.4419910727962Clb=3.4m/s t=-50.0C h=0.9% p=-1.0hPa 405.201 MHz Type=RS41-NG ser=U2510100 Radiosonde
KE7KRFU25101002022-12-06 00:45:1432.6071-109.4519011927786Clb=4.6m/s t=-273.0C h=-1.0% p=-1.0hPa 405.201 MHz Type=RS41-NG ser=U2510100 Radiosonde
KE7KRFU25101002022-12-06 00:44:2232.6088-109.4629011927621Clb=7.0m/s t=-273.0C h=-1.0% p=-1.0hPa 405.201 MHz Type=RS41-NG ser=U2510100 Radiosonde
KE7KRFU25101002022-12-06 00:43:2632.6097-109.472979627444Clb=6.3m/s t=-273.0C h=-1.0% p=-1.0hPa 405.201 MHz Type=RS41 ser=U2510100 Radiosonde
KE7KRFU25101002022-12-06 00:42:2732.6113-109.4829511927266Clb=5.6m/s t=-53.6C h=1.1% p=-1.0hPa 405.201 MHz Type=RS41-NG ser=U2510100 Radiosonde
KE7KRFU25101002022-12-06 00:41:2832.6128-109.4921189827074Clb=7.2m/s t=-54.7C h=1.1% p=-1.0hPa 405.201 MHz Type=RS41-NG ser=U2510100 Radiosonde
KE7KRFU25101002022-12-06 00:40:2932.6139-109.5011158526872Clb=6.8m/s t=-54.9C h=1.1% p=-1.0hPa 405.201 MHz Type=RS41-NG ser=U2510100 Radiosonde
KE7KRFU25101002022-12-06 00:39:3332.6152-109.50910310626679Clb=6.7m/s t=-56.6C h=1.3% p=-1.0hPa 405.201 MHz Type=RS41-NG ser=U2510100 Radiosonde
KE7KRFU25101002022-12-06 00:38:3832.6161-109.517909126483Clb=5.6m/s t=-55.9C h=1.2% p=-1.0hPa 405.201 MHz Type=RS41-NG ser=U2510100 Radiosonde
KE7KRFU25101002022-12-06 00:37:3832.6165-109.524858726299Clb=4.7m/s t=-56.1C h=1.2% p=-1.0hPa 405.201 MHz Type=RS41-NG ser=U2510100 Radiosonde
KE7KRF-14U25101002022-12-06 00:36:5532.6167-109.529876526179Clb=6.6m/s t=-56.2C h=4.2% 405.20MHz Type=RS41-NG Details on http://radiosondy.info
KE7KRFU25101002022-12-06 00:36:3532.6167-109.532747026127Clb=3.3m/s t=-57.0C h=1.2% p=-1.0hPa 405.201 MHz Type=RS41-NG ser=U2510100 Radiosonde
KE7KRFU25101002022-12-06 00:35:4832.6172-109.537976725956Clb=3.8m/s t=-57.4C h=1.3% p=-1.0hPa 405.201 MHz Type=RS41-NG ser=U2510100 Radiosonde
KE7KRF-14U25101002022-12-06 00:35:3632.618-109.541185025857Clb=6.4m/s t=-57.2C h=4.5% 405.20MHz Type=RS41-NG batt=2.5V Details on http://radiosondy.info
KE7KRFU25101002022-12-06 00:35:2032.6187-109.5421276525792Clb=6.1m/s t=-57.3C h=1.3% p=-1.0hPa 405.201 MHz Type=RS41-NG ser=U2510100 Radiosonde
KE7KRFU25101002022-12-06 00:34:4632.621-109.5471208125628Clb=4.5m/s t=-57.8C h=1.3% p=-1.0hPa 405.201 MHz Type=RS41-NG ser=U2510100 Radiosonde
KE7KRFU25101002022-12-06 00:34:1932.6231-109.5521287625449Clb=3.3m/s t=-58.3C h=1.4% p=-1.0hPa 405.201 MHz Type=RS41-NG ser=U2510100 Radiosonde
KE7KRF-14U25101002022-12-06 00:34:1132.6234-109.5531235725415Clb=6.1m/s t=-58.1C h=4.9% 405.20MHz Type=RS41-NG Details on http://radiosondy.info
KE7KRFU25101002022-12-06 00:33:4432.6255-109.5571257225254Clb=7.1m/s t=-58.0C h=1.3% p=-1.0hPa 405.201 MHz Type=RS41-NG ser=U2510100 Radiosonde
KE7KRFU25101002022-12-06 00:33:1432.6278-109.5631257625051Clb=4.8m/s t=-57.3C h=1.4% p=-1.0hPa 405.201 MHz Type=RS41-NG ser=U2510100 Radiosonde
KE7KRF-14U25101002022-12-06 00:33:1032.6281-109.5631195725025Clb=5.5m/s t=-57.1C h=4.7% 405.20MHz Type=RS41-NG Details on http://radiosondy.info
KE7KRFU25101002022-12-06 00:32:5032.6399-109.63484122286Clb=5.3m/s t=-63.2C h=1.8% p=-1.0hPa 405.201 MHz Type=RS41-NG ser=U2510100 Radiosonde
KE7KRFU25101002022-12-06 00:31:4832.6382-109.633794322114Clb=4.6m/s t=-63.1C h=1.8% p=-1.0hPa 405.201 MHz Type=RS41-NG ser=U2510100 Radiosonde
KE7KRFU25101002022-12-06 00:30:5032.6379-109.6371032821927Clb=6.6m/s t=-62.8C h=-1.0% p=-1.0hPa 405.201 MHz Type=RS41-NG ser=U2510100 Radiosonde
KE7KRFU25101002022-12-06 00:29:5232.6392-109.641164421739Clb=7.1m/s t=-63.1C h=-1.0% p=-1.0hPa 405.201 MHz Type=RS41-NG ser=U2510100 Radiosonde
KE7KRFU25101002022-12-06 00:28:5532.6417-109.6431296721542Clb=4.8m/s t=-61.4C h=-1.0% p=-1.0hPa 405.201 MHz Type=RS41 ser=U2510100 Radiosonde
KE7KRFU25101002022-12-06 00:27:5832.6444-109.6481216721332Clb=8.0m/s t=-273.0C h=-1.0% p=-1.0hPa 405.201 MHz Type=RS41 ser=U2510100 Radiosonde
KE7KRFU25101002022-12-06 00:26:5732.647-109.6531177421136Clb=5.4m/s t=-273.0C h=-1.0% p=-1.0hPa 405.201 MHz Type=RS41 ser=U2510100 Radiosonde
KE7KRFU25101002022-12-06 00:25:5732.6488-109.658986920988Clb=4.4m/s t=-273.0C h=-1.0% p=-1.0hPa 405.201 MHz Type=RS41 ser=U2510100 Radiosonde
KE7KRFU25101002022-12-06 00:20:0532.6478-109.703755719849Clb=6.3m/s t=-273.0C h=-1.0% p=-1.0hPa 405.201 MHz Type=RS41 ser=U2510100 Radiosonde
KE7KRFU25101002022-12-06 00:19:0832.6474-109.706806119751Clb=5.2m/s t=-273.0C h=-1.0% p=-1.0hPa 405.201 MHz Type=RS41 ser=U2510100 Radiosonde
KE7KRFU25101002022-12-06 00:18:1232.6472-109.711825619571Clb=5.8m/s t=-273.0C h=-1.0% p=-1.0hPa 405.201 MHz Type=RS41 ser=U2510100 Radiosonde
KE7KRFU25101002022-12-06 00:14:4332.6441-109.734856518726Clb=4.2m/s t=-64.4C h=3.8% p=-1.0hPa 405.201 MHz Type=RS41-NG ser=U2510100 Radiosonde
KE7KRFU25101002022-12-06 00:14:2832.6444-109.741898518598Clb=3.6m/s t=-65.3C h=4.4% p=-1.0hPa 405.201 MHz Type=RS41-NG ser=U2510100 Radiosonde
KE7KRFU25101002022-12-06 00:14:0032.6447-109.7568711318414Clb=5.2m/s t=-67.4C h=6.5% p=-1.0hPa 405.201 MHz Type=RS41-NG ser=U2510100 Radiosonde
KE7KRFU25101002022-12-06 00:13:4332.6416-109.7777210918147Clb=5.7m/s t=-72.5C h=9.3% p=-1.0hPa 405.201 MHz Type=RS41-NG ser=U2510100 Radiosonde
KE7KRFU25101002022-12-06 00:13:3632.6361-109.7957510217843Clb=4.2m/s t=-74.3C h=9.9% p=-1.0hPa 405.201 MHz Type=RS41-NG ser=U2510100 Radiosonde
KE7KRFU25101002022-12-06 00:13:2132.6356-109.797799617802Clb=3.6m/s t=-74.3C h=9.8% p=-1.0hPa 405.201 MHz Type=RS41-NG ser=U2510100 Radiosonde
KE7KRFU25101002022-12-06 00:13:0032.6333-109.8067210717668Clb=3.9m/s t=-73.8C h=9.3% p=-1.0hPa 405.201 MHz Type=RS41-NG ser=U2510100 Radiosonde
KE7KRFU25101002022-12-06 00:12:5832.6305-109.8157012417542Clb=3.6m/s t=-74.3C h=9.2% p=-1.0hPa 405.201 MHz Type=RS41-NG ser=U2510100 Radiosonde
KE7KRF-14U25101002022-12-06 00:12:5732.6285-109.8226510717453Clb=3.1m/s t=-73.9C h=16.2% 405.20MHz Type=RS41-NG batt=2.7V Details on http://radiosondy.info
KE7KRFU25101002022-12-06 00:12:5632.6274-109.8256610617405Clb=6.2m/s t=-73.9C h=8.5% p=-1.0hPa 405.201 MHz Type=RS41-NG ser=U2510100 Radiosonde
KE7KRF-14U25101002022-12-06 00:12:5532.6252-109.8317112217307Clb=5.3m/s t=-73.2C h=15.7% 405.20MHz Type=RS41-NG Details on http://radiosondy.info
KE7KRFU25101002022-12-06 00:12:4632.6239-109.8356811917252Clb=4.0m/s t=-72.8C h=8.1% p=-1.0hPa 405.201 MHz Type=RS41-NG ser=U2510100 Radiosonde
KE7KRF-14U25101002022-12-06 00:12:4032.6233-109.8376912217226Clb=5.6m/s t=-72.5C h=15.4% 405.20MHz Type=RS41-NG batt=2.7V Details on http://radiosondy.info
KE7KRF-14U25101002022-12-06 00:12:1332.6213-109.8426612217143Clb=4.9m/s t=-72.0C h=14.5% 405.20MHz Type=RS41-NG Details on http://radiosondy.info
KE7KRFU25101002022-12-06 00:11:5232.6202-109.8456413017090Clb=5.7m/s t=-71.8C h=7.6% p=-1.0hPa 405.201 MHz Type=RS41-NG ser=U2510100 Radiosonde
KE7KRF-14U25101002022-12-06 00:11:4232.6195-109.8476913117060Clb=6.2m/s t=-71.6C h=14.3% 405.20MHz Type=RS41-NG Details on http://radiosondy.info
KE7KRF-14U25101002022-12-06 00:11:1632.6172-109.8536113016972Clb=5.9m/s t=-70.9C h=13.3% 405.20MHz Type=RS41-NG TxPastBurst=8h30m batt=2.6V Details on http://radiosondy.info
KE7KRFU25101002022-12-06 00:10:5732.6159-109.8565813116923Clb=6.5m/s t=-70.7C h=6.8% p=-1.0hPa 405.201 MHz Type=RS41-NG ser=U2510100 Radiosonde
KE7KRF-14U25101002022-12-06 00:10:4432.6148-109.8586412616888Clb=4.1m/s t=-70.6C h=13.3% 405.20MHz Type=RS41-NG Details on http://radiosondy.info
KE7KRF-14U25101002022-12-06 00:10:1232.6125-109.8636212016809Clb=4.7m/s t=-70.9C h=13.5% 405.20MHz Type=RS41-NG Details on http://radiosondy.info
KE7KRFU25101002022-12-06 00:09:5732.6114-109.8666312416769Clb=4.7m/s t=-70.8C h=7.0% p=-1.0hPa 405.201 MHz Type=RS41-NG ser=U2510100 Radiosonde
KE7KRF-14U25101002022-12-06 00:09:4232.6104-109.8686511516730Clb=5.0m/s t=-70.5C h=13.5% 405.20MHz Type=RS41-NG batt=2.7V Details on http://radiosondy.info
KE7KRF-14U25101002022-12-06 00:09:1432.6084-109.8736411116647Clb=5.7m/s t=-70.0C h=12.8% 405.20MHz Type=RS41-NG Details on http://radiosondy.info
KE7KRFU25101002022-12-06 00:08:5932.6076-109.8756410916611Clb=4.9m/s t=-69.9C h=6.5% p=-1.0hPa 405.201 MHz Type=RS41-NG ser=U2510100 Radiosonde
KE7KRF-14U25101002022-12-06 00:08:4432.6066-109.8787211116564Clb=5.7m/s t=-69.9C h=12.8% 405.20MHz Type=RS41-NG Details on http://radiosondy.info
KE7KRF-14U25101002022-12-06 00:08:1532.6048-109.8836010716483Clb=4.9m/s t=-70.0C h=12.5% 405.20MHz Type=RS41-NG batt=2.7V Details on http://radiosondy.info
KE7KRFU25101002022-12-06 00:08:0232.6041-109.8856311316454Clb=4.6m/s t=-70.0C h=6.6% p=-1.0hPa 405.201 MHz Type=RS41-NG ser=U2510100 Radiosonde
KE7KRF-14U25101002022-12-06 00:07:4432.6028-109.8876410416405Clb=5.6m/s t=-70.4C h=13.2% 405.20MHz Type=RS41-NG Details on http://radiosondy.info
KE7KRF-14U25101002022-12-06 00:07:1632.6011-109.8926610016325Clb=5.7m/s t=-70.1C h=12.5% 405.20MHz Type=RS41-NG Details on http://radiosondy.info
KE7KRFU25101002022-12-06 00:07:0632.6007-109.893719616299Clb=6.0m/s t=-70.1C h=6.6% p=-1.0hPa 405.201 MHz Type=RS41-NG ser=U2510100 Radiosonde
KE7KRF-14U25101002022-12-06 00:06:4932.5997-109.8967310616244Clb=5.4m/s t=-70.7C h=13.5% 405.20MHz Type=RS41-NG TxPastBurst=8h30m batt=2.7V Details on http://radiosondy.info
KE7KRF-14U25101002022-12-06 00:06:2232.5987-109.9018011116164Clb=5.7m/s t=-70.2C h=13.0% 405.20MHz Type=RS41-NG Details on http://radiosondy.info
KE7KRFU25101002022-12-06 00:06:1432.5985-109.9027410716144Clb=4.4m/s t=-70.2C h=6.8% p=-1.0hPa 405.201 MHz Type=RS41-NG ser=U2510100 Radiosonde
KE7KRF-14U25101002022-12-06 00:05:5132.5978-109.9068011916086Clb=4.1m/s t=-69.8C h=12.4% 405.20MHz Type=RS41-NG Details on http://radiosondy.info
KE7KRF-14U25101002022-12-06 00:05:2132.5969-109.9127913316003Clb=4.8m/s t=-70.2C h=12.4% 405.20MHz Type=RS41-NG batt=2.7V Details on http://radiosondy.info
KE7KRFU25101002022-12-06 00:05:1532.5967-109.9137713015987Clb=6.2m/s t=-70.7C h=6.7% p=-1.0hPa 405.201 MHz Type=RS41-NG ser=U2510100 Radiosonde
KE7KRF-14U25101002022-12-06 00:04:5432.5958-109.9187813915917Clb=3.5m/s t=-70.8C h=13.0% 405.20MHz Type=RS41-NG Details on http://radiosondy.info
KE7KRF-14U25101002022-12-06 00:04:2532.5943-109.9247714115844Clb=2.9m/s t=-71.1C h=12.7% calibration 90% 405.20MHz Type=RS41-NG Details on http://radiosondy.info
KE7KRFU25101002022-12-06 00:04:2132.5942-109.9256913315836Clb=5.5m/s t=-71.4C h=6.6% p=-1.0hPa 405.201 MHz Type=RS41-NG ser=U2510100 Radiosonde
KE7KRF-14U25101002022-12-06 00:04:0032.5925-109.9317114115773Clb=5.1m/s t=-71.4C h=13.1% calibration 90% 405.20MHz Type=RS41-NG batt=2.7V Details on http://radiosondy.info
KE7KRF-14U25101002022-12-06 00:03:4532.5906-109.9376813715701Clb=3.8m/s t=-71.0C h=12.8% calibration 90% 405.20MHz Type=RS41-NG Details on http://radiosondy.info
KE7KRFU25101002022-12-06 00:03:4332.5904-109.9376914115696Clb=5.0m/s t=-71.0C h=6.5% p=-1.0hPa 405.201 MHz Type=RS41-NG ser=U2510100 Radiosonde
KE7KRF-14U25101002022-12-06 00:03:3132.5885-109.9436813715630Clb=5.1m/s t=-70.5C h=12.5% calibration 90% 405.20MHz Type=RS41-NG Details on http://radiosondy.info
KE7KRF-14U25101002022-12-06 00:03:1632.5862-109.9496513515557Clb=3.5m/s t=-70.1C calibration 84% 405.20MHz Type=RS41-NG TxPastBurst=8h30m batt=2.7V Details on http://radiosondy.info
KE7KRFU25101002022-12-06 00:03:1532.5861-109.9496113715553Clb=4.2m/s t=-70.2C h=5.8% p=-1.0hPa 405.201 MHz Type=RS41-NG ser=U2510100 Radiosonde
KE7KRF-14U25101002022-12-06 00:02:5632.5839-109.9546615615486Clb=5.5m/s calibration 72% 405.20MHz Type=RS41-NG Details on http://radiosondy.info
KE7KRFU25101002022-12-06 00:02:4132.5815-109.966713315409Clb=4.9m/s t=-69.0C h=5.3% p=-1.0hPa 405.201 MHz Type=RS41-NG ser=U2510100 Radiosonde
KE7KRFU25101002022-12-06 00:02:1232.577-109.9716312015249Clb=6.8m/s t=-67.5C h=-1.0% p=-1.0hPa 405.201 MHz Type=RS41-NG ser=U2510100 Radiosonde
KE7KRFU25101002022-12-06 00:01:3932.5722-109.9816112215084Clb=5.7m/s t=-273.0C h=-1.0% p=-1.0hPa 405.201 MHz Type=RS41 ser=U2510100 Radiosonde
KE7KRFU25101002022-12-05 23:58:4732.5312-110.097215013715Clb=5.5m/s t=-62.2C h=7.1% p=-1.0hPa 405.201 MHz Type=RS41-NG ser=U2510100 Radiosonde
KE7KRFU25101002022-12-05 23:57:5332.5299-110.0956815413664Clb=4.5m/s t=-62.3C h=7.5% p=-1.0hPa 405.201 MHz Type=RS41-NG ser=U2510100 Radiosonde
KE7KRFU25101002022-12-05 23:56:5732.5257-110.1087315713514Clb=4.9m/s t=-62.2C h=8.0% p=-1.0hPa 405.201 MHz Type=RS41-NG ser=U2510100 Radiosonde
KE7KRFU25101002022-12-05 23:56:0232.5219-110.1236915913359Clb=5.8m/s t=-61.3C h=8.9% p=-1.0hPa 405.201 MHz Type=RS41-NG ser=U2510100 Radiosonde
KE7KRFU25101002022-12-05 23:56:0032.5182-110.1367516113216Clb=3.1m/s t=-61.2C h=9.4% p=-1.0hPa 405.201 MHz Type=RS41-NG ser=U2510100 Radiosonde
KE7KRFU25101002022-12-05 23:55:5232.514-110.157016713077Clb=3.2m/s t=-60.9C h=10.8% p=-1.0hPa 405.201 MHz Type=RS41-NG ser=U2510100 Radiosonde
KE7KRF-14U25101002022-12-05 23:55:1232.5097-110.1636717612961Clb=4.4m/s calibration 56% 405.20MHz Type=RS41-NG Details on http://radiosondy.info
KE7KRFU25101002022-12-05 23:55:0332.5088-110.1656816712938Clb=4.0m/s t=-60.3C h=11.6% p=-1.0hPa 405.201 MHz Type=RS41-NG ser=U2510100 Radiosonde
KE7KRF-14U25101002022-12-05 23:54:4732.507-110.176817212888Clb=5.0m/s calibration 54% 405.20MHz Type=RS41-NG batt=2.7V Details on http://radiosondy.info
KE7KRF-14U25101002022-12-05 23:54:2232.5046-110.1786917212818Clb=4.4m/s calibration 54% 405.20MHz Type=RS41-NG Details on http://radiosondy.info
KE7KRFU25101002022-12-05 23:54:1532.5039-110.187017212792Clb=5.6m/s t=-60.1C h=13.5% p=-1.0hPa 405.201 MHz Type=RS41-NG ser=U2510100 Radiosonde
KE7KRF-14U25101002022-12-05 23:53:5632.5024-110.1867217212738Clb=5.1m/s calibration 52% 405.20MHz Type=RS41-NG Details on http://radiosondy.info
KE7KRF-14U25101002022-12-05 23:53:3132.5003-110.1937217212669Clb=3.5m/s calibration 43% 405.20MHz Type=RS41-NG batt=2.7V Details on http://radiosondy.info
KE7KRFU25101002022-12-05 23:53:2432.4995-110.1957017012644Clb=4.3m/s t=-59.4C h=14.8% p=-1.0hPa 405.200 MHz Type=RS41-NG ser=U2510100 Radiosonde
KE7KRF-14U25101002022-12-05 23:53:0632.4978-110.2017017612593Clb=4.0m/s calibration 31% 405.20MHz Type=RS41-NG Details on http://radiosondy.info
KE7KRF-14U25101002022-12-05 23:52:3932.4955-110.2087418112516Clb=5.1m/s calibration 19% 405.20MHz Type=RS41-NG Details on http://radiosondy.info
KE7KRFU25101002022-12-05 23:52:3432.4949-110.2117218312496Clb=4.6m/s t=-59.0C h=16.9% p=-1.0hPa 405.200 MHz Type=RS41-NG ser=U2510100 Radiosonde
KE7KRF-14U25101002022-12-05 23:51:5832.492-110.2217018312379Clb=5.7m/s calibration 7% 405.20MHz Type=RS41 batt=2.7V Details on http://radiosondy.info
KE7KRFU25101002022-12-05 23:51:4932.4904-110.2266817812332Clb=4.5m/s t=-59.4C h=-1.0% p=-1.0hPa 405.200 MHz Type=RS41-NG ser=U2510100 Radiosonde
KE7KRFU25101002022-12-05 23:51:1832.4852-110.2426918112210Clb=3.9m/s t=-59.0C h=-1.0% p=-1.0hPa 405.200 MHz Type=RS41-NG ser=U2510100 Radiosonde
KE7KRFU25101002022-12-05 23:51:1532.4799-110.2576717812025Clb=3.6m/s t=-273.0C h=-1.0% p=-1.0hPa 405.201 MHz Type=RS41-NG ser=U2510100 Radiosonde